Time;durP1;ratioP1;P1;durP2;ratioP2;P2;SDS_P1;SDS_P2;PMS_P1;PMS_P2;Temp;Humidity;BMP_temperature;BMP_pressure;BME280_temperature;BME280_humidity;BME280_pressure;Samples;Min_cycle;Max_cycle;Signal;HPM_P1;HPM_P2
2021/09/09 06:22:20;;;;;;;11.37;10.17;;;19.40;99.90;;;;;;10500642;23;20254;-82
2021/09/09 06:27:22;;;;;;;11.27;10.13;;;19.50;99.90;;;;;;10487504;28;20279;-82
2021/09/09 06:32:25;;;;;;;10.67;9.67;;;19.70;99.90;;;;;;10486088;28;20243;-82
2021/09/09 06:37:28;;;;;;;9.93;8.43;;;19.90;99.90;;;;;;10495021;28;20272;-82
2021/09/09 06:42:30;;;;;;;11.00;9.90;;;20.10;99.90;;;;;;10474181;28;20228;-82
2021/09/09 06:47:32;;;;;;;11.10;10.10;;;20.20;99.90;;;;;;10484563;28;20507;-82
2021/09/09 06:52:36;;;;;;;10.27;9.37;;;20.40;99.90;;;;;;10501084;28;20208;-82
2021/09/09 06:57:43;;;;;;;10.77;9.67;;;20.40;99.90;;;;;;10481295;28;20250;-82
2021/09/09 07:02:49;;;;;;;10.80;9.90;;;20.40;99.90;;;;;;10466132;28;20616;-82
2021/09/09 07:07:57;;;;;;;14.17;11.20;;;20.40;99.90;;;;;;10502568;28;20188;-82
2021/09/09 07:12:59;;;;;;;8.50;7.80;;;20.50;99.90;;;;;;10485566;28;20211;-82
2021/09/09 07:18:01;;;;;;;10.37;9.20;;;20.60;99.90;;;;;;10485494;28;20196;-82
2021/09/09 07:23:05;;;;;;;10.97;9.90;;;20.60;99.90;;;;;;10488154;28;20224;-82
2021/09/09 07:28:07;;;;;;;11.00;10.00;;;20.60;99.90;;;;;;10512677;28;20233;-82
2021/09/09 07:33:09;;;;;;;11.20;10.30;;;20.70;99.90;;;;;;10512194;28;20217;-82
2021/09/09 07:38:13;;;;;;;12.03;10.87;;;20.70;99.90;;;;;;10510809;28;20192;-82
2021/09/09 07:43:15;;;;;;;10.87;9.73;;;20.70;99.90;;;;;;10475739;28;20311;-82
2021/09/09 07:48:17;;;;;;;10.30;9.20;;;20.70;99.90;;;;;;10492537;28;20196;-82
2021/09/09 07:53:21;;;;;;;10.30;9.50;;;20.80;99.90;;;;;;10475616;28;20231;-82
2021/09/09 07:58:23;;;;;;;11.43;10.47;;;21.00;99.90;;;;;;10510451;28;20561;-82
2021/09/09 08:03:25;;;;;;;13.03;11.83;;;21.30;99.90;;;;;;10475138;28;20683;-82
2021/09/09 08:08:28;;;;;;;10.47;9.67;;;21.60;99.90;;;;;;10491396;28;20207;-83
2021/09/09 08:13:30;;;;;;;9.83;8.83;;;21.80;99.90;;;;;;10509090;28;20193;-82
2021/09/09 08:18:33;;;;;;;9.73;8.73;;;22.00;99.90;;;;;;10491926;28;20260;-82
2021/09/09 08:23:37;;;;;;;9.30;8.27;;;22.20;99.90;;;;;;10485092;28;20286;-82
2021/09/09 08:28:39;;;;;;;8.87;8.03;;;22.40;99.90;;;;;;10488164;28;20246;-82
2021/09/09 08:33:42;;;;;;;21.57;8.90;;;22.60;99.90;;;;;;10472836;28;20291;-83
2021/09/09 08:38:46;;;;;;;8.93;8.23;;;22.80;99.90;;;;;;10474924;28;20220;-82
2021/09/09 08:43:48;;;;;;;8.73;7.90;;;22.90;99.90;;;;;;10474293;28;20207;-82
2021/09/09 08:48:50;;;;;;;8.47;7.77;;;23.00;99.90;;;;;;10489733;28;20216;-83
2021/09/09 08:53:53;;;;;;;8.60;8.00;;;23.10;99.90;;;;;;10473697;28;20236;-82
2021/09/09 08:58:56;;;;;;;8.20;7.60;;;23.10;99.90;;;;;;10490695;28;20290;-82
2021/09/09 09:04:01;;;;;;;8.60;7.70;;;23.10;99.90;;;;;;10508550;28;20289;-82
2021/09/09 09:09:08;;;;;;;9.23;8.40;;;23.00;99.90;;;;;;10473299;28;20584;-83
2021/09/09 09:14:12;;;;;;;9.00;8.30;;;23.00;99.90;;;;;;10489593;28;20211;-82
2021/09/09 09:19:16;;;;;;;8.93;8.20;;;23.00;99.90;;;;;;10489482;28;20232;-82
2021/09/09 09:24:21;;;;;;;8.80;7.90;;;23.00;99.90;;;;;;10518280;28;20189;-82
2021/09/09 09:29:25;;;;;;;12.27;8.40;;;23.00;99.90;;;;;;10473544;28;20212;-82
2021/09/09 09:34:28;;;;;;;7.87;7.27;;;23.00;99.90;;;;;;10488281;28;20279;-83
2021/09/09 09:39:32;;;;;;;8.90;8.00;;;23.10;99.90;;;;;;10487672;28;20319;-82
2021/09/09 09:44:36;;;;;;;7.83;7.23;;;23.30;99.90;;;;;;10471166;28;20207;-82
2021/09/09 09:49:42;;;;;;;8.77;8.07;;;23.50;99.90;;;;;;10488101;28;20223;-83
2021/09/09 09:54:53;;;;;;;7.87;7.10;;;23.90;99.90;;;;;;10488004;28;20197;-83
2021/09/09 09:59:56;;;;;;;8.70;7.90;;;24.30;99.90;;;;;;10488683;28;20260;-82
2021/09/09 10:05:01;;;;;;;7.73;7.17;;;24.60;99.90;;;;;;10489118;28;20197;-82
2021/09/09 10:10:07;;;;;;;8.03;7.37;;;24.80;99.90;;;;;;10516379;28;20216;-83
2021/09/09 10:15:12;;;;;;;7.10;6.60;;;25.00;99.90;;;;;;10470583;28;20254;-82
2021/09/09 10:20:32;;;;;;;7.90;7.30;;;25.10;99.90;;;;;;10467128;28;20243;-83
2021/09/09 10:25:46;;;;;;;7.77;7.17;;;25.00;99.90;;;;;;10486723;28;20636;-82
2021/09/09 10:31:02;;;;;;;7.57;6.87;;;24.80;99.50;;;;;;10486108;28;20208;-83
2021/09/09 10:36:04;;;;;;;8.20;7.50;;;24.70;99.90;;;;;;10469986;28;20269;-83
2021/09/09 10:41:07;;;;;;;8.00;7.20;;;24.60;99.90;;;;;;10469604;28;20231;-83
2021/09/09 10:46:14;;;;;;;10.60;7.60;;;24.50;99.90;;;;;;10503434;28;20248;-83
2021/09/09 10:51:18;;;;;;;8.23;7.53;;;24.40;99.90;;;;;;10486542;28;20307;-82
2021/09/09 10:56:23;;;;;;;7.80;7.00;;;24.40;99.90;;;;;;10468040;28;20204;-82
2021/09/09 11:01:25;;;;;;;8.00;7.30;;;24.40;99.90;;;;;;10486305;28;20232;-82
2021/09/09 11:06:29;;;;;;;7.77;6.63;;;24.30;99.90;;;;;;10503967;28;20203;-82
2021/09/09 11:11:32;;;;;;;7.40;6.80;;;24.30;99.40;;;;;;10486017;28;20208;-82
2021/09/09 11:16:36;;;;;;;6.30;5.70;;;24.30;99.60;;;;;;10511566;28;20196;-82
2021/09/09 11:21:41;;;;;;;6.50;6.10;;;24.30;99.90;;;;;;10510071;28;20653;-82
2021/09/09 11:26:47;;;;;;;9.03;6.47;;;24.20;99.90;;;;;;10485299;28;20228;-82
2021/09/09 11:31:50;;;;;;;7.80;7.00;;;24.10;99.90;;;;;;10501635;28;20291;-82
2021/09/09 11:36:53;;;;;;;6.90;6.30;;;24.10;99.90;;;;;;10503422;28;20265;-82
2021/09/09 11:41:59;;;;;;;7.30;6.60;;;24.00;99.90;;;;;;10485094;28;20228;-82
2021/09/09 11:47:09;;;;;;;7.77;7.17;;;24.00;99.80;;;;;;10493585;28;20197;-82
2021/09/09 11:52:12;;;;;;;6.73;6.03;;;24.00;99.90;;;;;;10485669;28;20231;-82
2021/09/09 11:57:20;;;;;;;8.20;6.57;;;24.10;99.90;;;;;;10482238;28;20296;-82
2021/09/09 12:02:24;;;;;;;6.87;6.27;;;24.30;99.40;;;;;;10477518;28;20568;-83
2021/09/09 12:07:29;;;;;;;7.60;7.00;;;24.30;99.90;;;;;;10497194;28;20204;-82
2021/09/09 12:12:37;;;;;;;7.67;7.07;;;24.40;99.60;;;;;;10486995;28;20270;-82
2021/09/09 12:17:40;;;;;;;7.13;6.60;;;24.60;99.50;;;;;;10507385;28;20558;-81
2021/09/09 12:22:49;;;;;;;7.27;6.67;;;24.70;99.50;;;;;;10357907;23;20259;-86
2021/09/09 12:28:08;;;;;;;7.10;6.60;;;24.60;98.80;;;;;;10357112;28;20216;-86
2021/09/09 12:33:19;;;;;;;8.47;7.60;;;24.60;98.50;;;;;;10374154;28;20228;-84
2021/09/09 12:38:30;;;;;;;7.00;6.50;;;24.70;97.00;;;;;;10357889;28;20200;-86
2021/09/09 12:43:35;;;;;;;8.13;7.53;;;24.70;97.40;;;;;;10356294;28;20255;-87
2021/09/09 12:48:38;;;;;;;7.10;6.60;;;24.80;96.70;;;;;;10372919;28;20295;-86
2021/09/09 12:53:40;;;;;;;7.10;6.50;;;24.90;97.80;;;;;;10271392;28;20240;-86
2021/09/09 12:58:43;;;;;;;7.10;6.60;;;25.00;98.50;;;;;;10289025;28;20729;-86
2021/09/09 13:03:45;;;;;;;7.27;6.77;;;25.00;97.80;;;;;;10354940;28;20703;-86
2021/09/09 13:08:49;;;;;;;7.50;6.50;;;25.10;97.60;;;;;;10288074;28;20224;-85
2021/09/09 13:13:53;;;;;;;7.23;6.73;;;25.20;95.80;;;;;;10287293;28;20235;-85
2021/09/09 13:18:55;;;;;;;7.47;6.97;;;25.30;97.00;;;;;;10273215;28;20198;-85
2021/09/09 13:23:57;;;;;;;11.13;7.20;;;25.20;96.50;;;;;;10287180;28;20220;-86
2021/09/09 13:29:01;;;;;;;7.83;7.23;;;25.20;95.40;;;;;;10286880;28;20280;-86
2021/09/09 13:34:03;;;;;;;6.30;5.80;;;25.40;95.50;;;;;;10287584;28;20640;-86
2021/09/09 13:39:05;;;;;;;8.00;7.40;;;25.60;95.60;;;;;;10286499;28;20569;-86
2021/09/09 13:44:09;;;;;;;7.20;6.70;;;25.70;95.40;;;;;;10270868;28;20703;-86
2021/09/09 13:49:11;;;;;;;7.33;6.70;;;25.70;95.60;;;;;;10353764;28;20247;-86
2021/09/09 13:54:13;;;;;;;7.53;6.93;;;25.60;96.90;;;;;;10289691;28;20184;-86
2021/09/09 13:59:17;;;;;;;5.17;4.77;;;25.60;96.70;;;;;;10354976;28;20224;-86
2021/09/09 14:04:19;;;;;;;5.03;4.67;;;25.60;96.80;;;;;;10269851;28;20228;-86
2021/09/09 14:09:21;;;;;;;5.60;4.80;;;25.60;97.80;;;;;;10270340;28;20227;-86
2021/09/09 14:14:25;;;;;;;6.80;5.80;;;25.50;98.20;;;;;;10354139;28;20223;-86
2021/09/09 14:19:27;;;;;;;5.97;5.53;;;25.40;97.40;;;;;;10285984;28;20297;-86
2021/09/09 14:24:29;;;;;;;5.87;5.40;;;25.40;97.90;;;;;;10353713;28;20223;-86
2021/09/09 14:29:32;;;;;;;6.40;5.83;;;25.30;98.40;;;;;;10285461;28;20235;-86
2021/09/09 14:34:35;;;;;;;6.03;5.63;;;25.20;99.10;;;;;;10284905;28;20184;-85
2021/09/09 14:39:37;;;;;;;7.37;6.67;;;25.20;99.30;;;;;;10286565;28;20219;-86
2021/09/09 14:44:40;;;;;;;6.13;5.73;;;25.20;99.50;;;;;;10305743;28;20215;-87
2021/09/09 14:49:42;;;;;;;5.60;5.10;;;25.30;95.40;;;;;;10284416;28;20224;-85
2021/09/09 14:54:45;;;;;;;6.03;5.53;;;25.40;97.40;;;;;;10284716;28;20563;-86
2021/09/09 14:59:49;;;;;;;6.23;5.33;;;25.60;93.40;;;;;;10286411;28;20261;-86
2021/09/09 15:04:51;;;;;;;6.60;6.10;;;25.70;95.70;;;;;;10284528;28;20232;-85
2021/09/09 15:09:53;;;;;;;6.60;5.40;;;25.60;95.70;;;;;;10286064;28;20235;-86
2021/09/09 15:14:56;;;;;;;6.07;5.50;;;25.60;94.50;;;;;;10351295;28;20246;-86
2021/09/09 15:19:59;;;;;;;6.50;5.90;;;25.60;95.00;;;;;;10351952;28;20616;-86
2021/09/09 15:25:01;;;;;;;6.43;5.83;;;25.50;93.80;;;;;;10368902;28;20232;-86
2021/09/09 15:30:06;;;;;;;6.10;5.50;;;25.50;93.90;;;;;;10283708;28;20224;-85
2021/09/09 15:35:10;;;;;;;5.53;5.13;;;25.40;92.70;;;;;;10283329;28;20691;-86
2021/09/09 15:40:13;;;;;;;6.40;5.40;;;25.30;94.50;;;;;;10267200;28;20220;-86
2021/09/09 15:45:16;;;;;;;6.20;5.70;;;25.00;93.80;;;;;;10290656;28;20206;-86
2021/09/09 15:50:19;;;;;;;6.63;6.03;;;24.80;95.70;;;;;;10358222;28;20640;-87
2021/09/09 15:55:23;;;;;;;7.03;6.30;;;24.60;92.70;;;;;;10290353;28;20706;-85
2021/09/09 16:00:27;;;;;;;5.97;5.57;;;24.40;94.90;;;;;;10289879;28;20517;-86
2021/09/09 16:05:29;;;;;;;6.03;5.53;;;24.30;95.50;;;;;;10358720;28;20318;-86
2021/09/09 16:10:31;;;;;;;5.63;5.23;;;24.10;97.00;;;;;;10291520;28;20226;-85
2021/09/09 16:15:35;;;;;;;7.10;6.40;;;23.90;97.20;;;;;;10289806;28;20288;-86
2021/09/09 16:20:37;;;;;;;6.67;6.10;;;23.80;95.50;;;;;;10290346;28;20232;-86
2021/09/09 16:25:39;;;;;;;7.93;6.37;;;23.90;93.20;;;;;;10357299;28;20232;-86
2021/09/09 16:30:44;;;;;;;7.40;5.43;;;24.00;93.20;;;;;;10291260;28;20566;-86
2021/09/09 16:35:46;;;;;;;7.10;6.50;;;23.90;95.00;;;;;;10289479;28;20230;-85
2021/09/09 16:40:48;;;;;;;6.30;5.90;;;23.80;94.70;;;;;;10289614;28;20246;-85
2021/09/09 16:45:51;;;;;;;5.87;5.47;;;23.90;94.30;;;;;;10358191;28;20282;-87
2021/09/09 16:50:54;;;;;;;6.83;6.33;;;23.90;94.80;;;;;;10290479;28;20239;-86
2021/09/09 16:55:56;;;;;;;6.87;6.27;;;23.80;97.00;;;;;;10290118;28;20200;-86
2021/09/09 17:01:00;;;;;;;6.83;6.23;;;23.80;97.20;;;;;;10357254;28;20244;-86
2021/09/09 17:06:03;;;;;;;5.93;5.53;;;23.70;98.40;;;;;;10305722;28;20234;-85
2021/09/09 17:11:05;;;;;;;7.33;6.43;;;23.50;98.80;;;;;;10291888;28;20753;-87
2021/09/09 17:16:08;;;;;;;6.23;5.63;;;23.50;97.90;;;;;;10357912;28;20211;-86
2021/09/09 17:21:11;;;;;;;7.40;6.70;;;23.40;99.10;;;;;;10288220;28;20231;-86
2021/09/09 17:26:13;;;;;;;7.30;6.07;;;23.30;98.30;;;;;;10288616;28;20228;-86
2021/09/09 17:31:17;;;;;;;6.40;5.80;;;23.20;99.10;;;;;;10288918;28;20216;-85
2021/09/09 17:36:19;;;;;;;7.03;6.43;;;23.10;98.60;;;;;;10305166;28;20207;-84
2021/09/09 17:41:21;;;;;;;7.80;6.80;;;23.10;98.90;;;;;;10291528;28;20312;-84
2021/09/09 17:46:25;;;;;;;8.23;7.43;;;23.00;99.80;;;;;;10272503;28;20265;-86
2021/09/09 17:51:27;;;;;;;8.77;8.00;;;22.80;99.90;;;;;;10357315;28;20228;-85
2021/09/09 17:56:29;;;;;;;7.73;7.03;;;22.70;99.40;;;;;;10356047;28;20208;-85
2021/09/09 18:01:33;;;;;;;7.77;7.07;;;22.60;99.30;;;;;;10351051;28;20236;-85
2021/09/09 18:06:35;;;;;;;6.73;6.13;;;22.50;99.90;;;;;;10288057;28;20574;-85
2021/09/09 18:11:38;;;;;;;7.47;6.77;;;22.50;99.90;;;;;;10357294;28;20219;-86
2021/09/09 18:16:42;;;;;;;6.90;6.30;;;22.40;99.90;;;;;;10272920;28;20251;-86
2021/09/09 18:21:44;;;;;;;7.57;7.00;;;22.30;99.90;;;;;;10276721;28;20301;-84
2021/09/09 18:26:46;;;;;;;6.80;6.30;;;22.20;99.90;;;;;;10362884;28;20273;-85
2021/09/09 18:31:50;;;;;;;8.20;7.60;;;22.20;99.90;;;;;;10296674;28;20268;-85
2021/09/09 18:36:52;;;;;;;11.37;7.73;;;22.10;99.90;;;;;;10299592;28;20212;-85
2021/09/09 18:41:54;;;;;;;7.60;6.90;;;22.00;99.90;;;;;;10284260;28;20220;-85
2021/09/09 18:46:58;;;;;;;7.80;7.20;;;22.00;99.90;;;;;;10295379;28;20172;-84
2021/09/09 18:52:00;;;;;;;9.17;7.10;;;21.90;99.90;;;;;;10296675;28;20215;-85
2021/09/09 18:57:02;;;;;;;9.00;7.63;;;21.90;99.90;;;;;;10279017;28;20620;-86
2021/09/09 19:02:06;;;;;;;7.30;6.77;;;21.80;99.90;;;;;;10293162;28;20229;-84
2021/09/09 19:07:08;;;;;;;6.93;5.47;;;21.80;99.90;;;;;;10296126;28;20228;-86
2021/09/09 19:12:12;;;;;;;6.50;6.10;;;21.90;99.50;;;;;;10293943;28;20269;-83
2021/09/09 19:17:17;;;;;;;6.63;6.13;;;21.90;99.90;;;;;;10273464;28;20663;-85
2021/09/09 19:22:20;;;;;;;7.13;6.60;;;21.90;99.20;;;;;;10313752;28;20254;-85
2021/09/09 19:27:22;;;;;;;6.90;6.20;;;21.90;99.50;;;;;;10299515;28;20234;-85
2021/09/09 19:32:26;;;;;;;6.90;6.40;;;22.00;98.40;;;;;;10296778;28;20223;-85
2021/09/09 19:37:29;;;;;;;7.10;6.27;;;22.00;99.90;;;;;;10285314;28;20202;-86
2021/09/09 19:42:31;;;;;;;5.97;5.57;;;22.00;98.30;;;;;;10296304;28;20590;-86
2021/09/09 19:47:35;;;;;;;6.33;5.73;;;22.00;98.40;;;;;;10298675;28;20208;-85
2021/09/09 19:52:37;;;;;;;5.90;5.50;;;22.00;99.20;;;;;;10281294;28;20250;-85
2021/09/09 19:57:39;;;;;;;7.43;6.83;;;22.00;98.90;;;;;;10281340;28;20667;-85
2021/09/09 20:02:43;;;;;;;7.50;6.23;;;21.90;99.70;;;;;;10295455;28;20224;-84
2021/09/09 20:07:46;;;;;;;7.33;6.80;;;21.90;98.20;;;;;;10284163;28;20231;-86
2021/09/09 20:12:48;;;;;;;7.20;6.50;;;21.90;98.20;;;;;;10296325;28;20212;-85
2021/09/09 20:17:51;;;;;;;7.03;6.43;;;21.80;98.30;;;;;;10302639;28;20394;-87
2021/09/09 20:22:54;;;;;;;6.70;6.10;;;21.70;98.50;;;;;;10305239;28;20238;-85
2021/09/09 20:27:56;;;;;;;7.70;7.00;;;21.60;99.00;;;;;;10300262;28;20204;-85
2021/09/09 20:32:59;;;;;;;7.27;6.67;;;21.60;99.00;;;;;;10298482;28;20224;-85
2021/09/09 20:38:01;;;;;;;13.57;6.53;;;21.50;99.20;;;;;;10303992;28;20196;-85
2021/09/09 20:43:04;;;;;;;6.87;6.37;;;21.50;98.90;;;;;;10303825;28;20295;-85
2021/09/09 20:48:07;;;;;;;7.47;6.80;;;21.40;99.20;;;;;;10281690;28;20231;-84
2021/09/09 20:53:09;;;;;;;8.43;7.73;;;21.40;98.50;;;;;;10300967;28;20295;-84
2021/09/09 20:58:11;;;;;;;8.80;7.07;;;21.30;99.40;;;;;;10299102;28;20204;-86
2021/09/09 21:03:15;;;;;;;7.30;6.70;;;21.30;99.00;;;;;;10298744;28;20228;-85
2021/09/09 21:08:17;;;;;;;7.67;6.87;;;21.20;99.20;;;;;;10299667;28;20727;-87
2021/09/09 21:13:19;;;;;;;7.67;6.97;;;21.20;99.90;;;;;;10300668;28;20226;-86
2021/09/09 21:18:23;;;;;;;8.10;7.50;;;21.20;99.90;;;;;;10283989;28;20679;-86
2021/09/09 21:23:25;;;;;;;7.20;6.70;;;21.20;99.90;;;;;;10301836;28;20270;-85
2021/09/09 21:28:27;;;;;;;7.67;7.00;;;21.20;99.90;;;;;;10302730;28;20200;-85
2021/09/09 21:33:31;;;;;;;7.07;6.60;;;21.20;99.90;;;;;;10301456;28;20216;-87
2021/09/09 21:38:33;;;;;;;8.57;7.70;;;21.20;99.90;;;;;;10301253;28;20204;-85
2021/09/09 21:43:35;;;;;;;8.30;7.60;;;21.10;99.90;;;;;;10386635;28;20216;-85
2021/09/09 21:48:38;;;;;;;8.30;7.70;;;21.10;99.90;;;;;;10305805;28;20192;-85
2021/09/09 21:53:41;;;;;;;8.27;7.47;;;21.00;99.90;;;;;;10282931;28;20220;-85
2021/09/09 21:58:43;;;;;;;8.33;7.73;;;21.00;99.90;;;;;;10282695;28;20920;-85
2021/09/09 22:03:47;;;;;;;7.90;7.30;;;21.00;99.90;;;;;;10301215;28;20315;-85
2021/09/09 22:08:49;;;;;;;8.77;7.97;;;21.00;99.00;;;;;;10304054;28;20717;-85
2021/09/09 22:13:51;;;;;;;7.23;6.63;;;21.10;98.70;;;;;;10302695;28;20226;-86
2021/09/09 22:18:54;;;;;;;8.10;7.43;;;21.20;98.80;;;;;;10303536;28;20231;-86
2021/09/09 22:23:56;;;;;;;8.43;7.83;;;21.20;99.30;;;;;;10288169;28;20666;-86
2021/09/09 22:28:59;;;;;;;7.80;7.10;;;21.20;98.90;;;;;;10304247;28;20188;-85
2021/09/09 22:34:03;;;;;;;9.50;7.77;;;21.20;99.30;;;;;;10286266;28;20196;-86
2021/09/09 22:39:05;;;;;;;7.83;7.23;;;21.20;99.10;;;;;;10304098;28;20580;-86
2021/09/09 22:44:07;;;;;;;8.63;7.93;;;21.20;98.90;;;;;;10287743;28;20219;-86
2021/09/09 22:49:11;;;;;;;9.47;8.57;;;21.20;99.20;;;;;;10298320;28;21912;-85
2021/09/09 22:54:13;;;;;;;7.97;7.47;;;21.20;99.40;;;;;;10315294;28;20227;-84
2021/09/09 22:59:15;;;;;;;8.10;7.40;;;21.20;99.50;;;;;;10280043;28;20246;-84
2021/09/09 23:04:19;;;;;;;8.87;8.17;;;21.20;99.90;;;;;;10279718;28;20224;-85
2021/09/09 23:09:21;;;;;;;8.30;7.70;;;21.20;99.80;;;;;;10293488;28;20212;-84
2021/09/09 23:14:23;;;;;;;8.60;7.90;;;21.20;99.90;;;;;;10285253;28;20243;-86
2021/09/09 23:19:27;;;;;;;8.77;8.07;;;21.20;99.70;;;;;;10275765;28;20232;-85
2021/09/09 23:24:29;;;;;;;8.63;7.80;;;21.10;99.80;;;;;;10291771;28;20273;-85
2021/09/09 23:29:31;;;;;;;9.10;8.40;;;21.10;99.70;;;;;;10294281;28;20226;-85
2021/09/09 23:34:34;;;;;;;8.70;7.90;;;21.10;99.90;;;;;;10277342;28;20220;-86
2021/09/09 23:39:37;;;;;;;8.43;7.73;;;21.00;99.90;;;;;;10278702;28;20220;-86
2021/09/09 23:44:39;;;;;;;8.20;7.53;;;20.90;99.90;;;;;;10290402;28;20274;-85
2021/09/09 23:49:42;;;;;;;8.60;7.90;;;20.90;99.80;;;;;;10293499;28;20311;-85
2021/09/09 23:54:44;;;;;;;7.87;7.03;;;20.80;99.90;;;;;;10277852;28;20205;-84
2021/09/09 23:59:46;;;;;;;8.90;8.17;;;20.80;99.90;;;;;;10291366;28;20216;-85
